sensor_id;sensor_type;location;lat;lon;timestamp;P1;durP1;ratioP1;P2;durP2;ratioP2
70951;SDS011;69214;55.880;37.542;2023-08-20T00:01:41;9.15;;;3.38;;
70951;SDS011;69214;55.880;37.542;2023-08-20T00:04:07;7.18;;;3.40;;
70951;SDS011;69214;55.880;37.542;2023-08-20T00:06:33;7.03;;;3.67;;
70951;SDS011;69214;55.880;37.542;2023-08-20T00:08:59;8.38;;;3.38;;
70951;SDS011;69214;55.880;37.542;2023-08-20T00:11:25;7.57;;;3.83;;
70951;SDS011;69214;55.880;37.542;2023-08-20T00:13:51;9.68;;;3.90;;
70951;SDS011;69214;55.880;37.542;2023-08-20T00:16:17;6.53;;;3.55;;
70951;SDS011;69214;55.880;37.542;2023-08-20T00:18:43;6.93;;;3.80;;
70951;SDS011;69214;55.880;37.542;2023-08-20T00:21:09;7.22;;;3.67;;
70951;SDS011;69214;55.880;37.542;2023-08-20T00:23:35;9.75;;;4.03;;
70951;SDS011;69214;55.880;37.542;2023-08-20T00:26:02;7.85;;;3.80;;
70951;SDS011;69214;55.880;37.542;2023-08-20T00:28:28;6.97;;;3.72;;
70951;SDS011;69214;55.880;37.542;2023-08-20T00:30:54;8.10;;;4.40;;
70951;SDS011;69214;55.880;37.542;2023-08-20T00:33:20;7.70;;;4.03;;
70951;SDS011;69214;55.880;37.542;2023-08-20T00:35:46;9.23;;;3.60;;
70951;SDS011;69214;55.880;37.542;2023-08-20T00:38:11;9.93;;;3.73;;
70951;SDS011;69214;55.880;37.542;2023-08-20T00:40:37;10.07;;;4.22;;
70951;SDS011;69214;55.880;37.542;2023-08-20T00:43:03;6.67;;;3.30;;
70951;SDS011;69214;55.880;37.542;2023-08-20T00:45:29;8.15;;;3.88;;
70951;SDS011;69214;55.880;37.542;2023-08-20T00:47:56;7.97;;;3.67;;
70951;SDS011;69214;55.880;37.542;2023-08-20T00:50:22;8.20;;;3.92;;
70951;SDS011;69214;55.880;37.542;2023-08-20T00:52:48;9.37;;;4.13;;
70951;SDS011;69214;55.880;37.542;2023-08-20T00:55:14;8.65;;;3.40;;
70951;SDS011;69214;55.880;37.542;2023-08-20T00:57:40;7.28;;;4.00;;
70951;SDS011;69214;55.880;37.542;2023-08-20T01:00:06;8.25;;;3.70;;
70951;SDS011;69214;55.880;37.542;2023-08-20T01:02:34;9.17;;;4.00;;
70951;SDS011;69214;55.880;37.542;2023-08-20T01:05:01;10.10;;;4.03;;
70951;SDS011;69214;55.880;37.542;2023-08-20T01:13:00;7.03;;;3.50;;
70951;SDS011;69214;55.880;37.542;2023-08-20T01:15:27;8.87;;;3.97;;
70951;SDS011;69214;55.880;37.542;2023-08-20T01:17:53;11.02;;;4.13;;
70951;SDS011;69214;55.880;37.542;2023-08-20T01:20:19;9.50;;;4.07;;
70951;SDS011;69214;55.880;37.542;2023-08-20T01:23:00;9.05;;;3.88;;
70951;SDS011;69214;55.880;37.542;2023-08-20T01:26:01;7.63;;;3.47;;
70951;SDS011;69214;55.880;37.542;2023-08-20T01:28:51;9.47;;;3.90;;
70951;SDS011;69214;55.880;37.542;2023-08-20T01:31:18;7.10;;;3.42;;
70951;SDS011;69214;55.880;37.542;2023-08-20T01:33:45;8.57;;;4.20;;
70951;SDS011;69214;55.880;37.542;2023-08-20T01:36:11;8.00;;;3.38;;
70951;SDS011;69214;55.880;37.542;2023-08-20T01:38:37;7.70;;;3.50;;
70951;SDS011;69214;55.880;37.542;2023-08-20T01:41:03;8.27;;;3.72;;
70951;SDS011;69214;55.880;37.542;2023-08-20T01:43:29;10.10;;;4.10;;
70951;SDS011;69214;55.880;37.542;2023-08-20T01:45:55;8.43;;;4.03;;
70951;SDS011;69214;55.880;37.542;2023-08-20T01:48:21;8.40;;;3.63;;
70951;SDS011;69214;55.880;37.542;2023-08-20T01:50:47;8.63;;;3.95;;
70951;SDS011;69214;55.880;37.542;2023-08-20T01:53:13;8.40;;;4.05;;
70951;SDS011;69214;55.880;37.542;2023-08-20T01:55:42;7.47;;;4.05;;
70951;SDS011;69214;55.880;37.542;2023-08-20T01:58:07;7.63;;;3.80;;
70951;SDS011;69214;55.880;37.542;2023-08-20T02:00:33;6.57;;;3.53;;
70951;SDS011;69214;55.880;37.542;2023-08-20T02:02:59;8.00;;;3.63;;
70951;SDS011;69214;55.880;37.542;2023-08-20T02:05:26;8.82;;;3.80;;
70951;SDS011;69214;55.880;37.542;2023-08-20T02:07:53;8.00;;;4.30;;
70951;SDS011;69214;55.880;37.542;2023-08-20T02:10:19;7.50;;;3.60;;
70951;SDS011;69214;55.880;37.542;2023-08-20T02:12:47;8.85;;;3.90;;
70951;SDS011;69214;55.880;37.542;2023-08-20T02:15:13;7.82;;;3.95;;
70951;SDS011;69214;55.880;37.542;2023-08-20T02:17:39;9.13;;;3.80;;
70951;SDS011;69214;55.880;37.542;2023-08-20T02:20:05;8.77;;;3.90;;
70951;SDS011;69214;55.880;37.542;2023-08-20T02:22:32;8.68;;;3.83;;
70951;SDS011;69214;55.880;37.542;2023-08-20T02:25:00;7.97;;;4.07;;
70951;SDS011;69214;55.880;37.542;2023-08-20T02:27:26;8.52;;;4.43;;
70951;SDS011;69214;55.880;37.542;2023-08-20T02:29:51;10.40;;;4.23;;
70951;SDS011;69214;55.880;37.542;2023-08-20T02:32:17;10.02;;;4.07;;
70951;SDS011;69214;55.880;37.542;2023-08-20T02:34:43;9.95;;;4.00;;
70951;SDS011;69214;55.880;37.542;2023-08-20T02:37:09;8.70;;;4.50;;
70951;SDS011;69214;55.880;37.542;2023-08-20T02:39:35;8.00;;;3.90;;
70951;SDS011;69214;55.880;37.542;2023-08-20T02:42:01;7.82;;;3.83;;
70951;SDS011;69214;55.880;37.542;2023-08-20T02:44:27;9.43;;;4.55;;
70951;SDS011;69214;55.880;37.542;2023-08-20T02:46:54;8.77;;;4.60;;
70951;SDS011;69214;55.880;37.542;2023-08-20T02:49:20;11.57;;;4.72;;
70951;SDS011;69214;55.880;37.542;2023-08-20T02:51:47;8.45;;;4.60;;
70951;SDS011;69214;55.880;37.542;2023-08-20T02:54:13;10.23;;;4.70;;
70951;SDS011;69214;55.880;37.542;2023-08-20T02:56:39;12.27;;;4.35;;
70951;SDS011;69214;55.880;37.542;2023-08-20T02:59:05;10.27;;;5.90;;
70951;SDS011;69214;55.880;37.542;2023-08-20T03:01:31;10.27;;;5.20;;
70951;SDS011;69214;55.880;37.542;2023-08-20T03:03:57;10.13;;;5.88;;
70951;SDS011;69214;55.880;37.542;2023-08-20T03:06:23;9.05;;;5.10;;
70951;SDS011;69214;55.880;37.542;2023-08-20T03:08:49;9.50;;;5.17;;
70951;SDS011;69214;55.880;37.542;2023-08-20T03:11:15;10.63;;;5.38;;
70951;SDS011;69214;55.880;37.542;2023-08-20T03:13:41;9.52;;;4.90;;
70951;SDS011;69214;55.880;37.542;2023-08-20T03:16:07;11.32;;;5.95;;
70951;SDS011;69214;55.880;37.542;2023-08-20T03:18:33;8.50;;;5.07;;
70951;SDS011;69214;55.880;37.542;2023-08-20T03:21:00;8.07;;;4.28;;
70951;SDS011;69214;55.880;37.542;2023-08-20T03:23:26;9.98;;;4.60;;
70951;SDS011;69214;55.880;37.542;2023-08-20T03:25:52;9.68;;;4.50;;
70951;SDS011;69214;55.880;37.542;2023-08-20T03:28:18;7.87;;;4.10;;
70951;SDS011;69214;55.880;37.542;2023-08-20T03:30:45;14.15;;;5.20;;
70951;SDS011;69214;55.880;37.542;2023-08-20T03:33:14;11.23;;;4.57;;
70951;SDS011;69214;55.880;37.542;2023-08-20T03:35:42;7.65;;;4.25;;
70951;SDS011;69214;55.880;37.542;2023-08-20T03:38:08;9.43;;;4.47;;
70951;SDS011;69214;55.880;37.542;2023-08-20T03:40:34;7.30;;;3.90;;
70951;SDS011;69214;55.880;37.542;2023-08-20T03:43:01;8.55;;;3.67;;
70951;SDS011;69214;55.880;37.542;2023-08-20T03:45:27;9.10;;;4.00;;
70951;SDS011;69214;55.880;37.542;2023-08-20T03:47:56;7.00;;;3.57;;
70951;SDS011;69214;55.880;37.542;2023-08-20T03:50:22;7.22;;;3.70;;
70951;SDS011;69214;55.880;37.542;2023-08-20T03:52:47;9.27;;;3.78;;
70951;SDS011;69214;55.880;37.542;2023-08-20T03:55:13;8.50;;;4.43;;
70951;SDS011;69214;55.880;37.542;2023-08-20T03:57:39;7.80;;;4.63;;
70951;SDS011;69214;55.880;37.542;2023-08-20T04:00:06;7.38;;;4.40;;
70951;SDS011;69214;55.880;37.542;2023-08-20T04:02:42;8.20;;;4.43;;
70951;SDS011;69214;55.880;37.542;2023-08-20T04:05:08;11.67;;;4.77;;
70951;SDS011;69214;55.880;37.542;2023-08-20T04:07:34;10.00;;;4.20;;
70951;SDS011;69214;55.880;37.542;2023-08-20T04:10:00;9.85;;;4.78;;
70951;SDS011;69214;55.880;37.542;2023-08-20T04:12:30;8.18;;;4.13;;
70951;SDS011;69214;55.880;37.542;2023-08-20T04:14:56;9.33;;;5.07;;
70951;SDS011;69214;55.880;37.542;2023-08-20T04:17:22;12.48;;;4.72;;
70951;SDS011;69214;55.880;37.542;2023-08-20T04:19:47;12.30;;;6.13;;
70951;SDS011;69214;55.880;37.542;2023-08-20T04:22:13;11.60;;;5.10;;
70951;SDS011;69214;55.880;37.542;2023-08-20T04:24:40;9.30;;;4.78;;
70951;SDS011;69214;55.880;37.542;2023-08-20T04:27:06;11.80;;;5.18;;
70951;SDS011;69214;55.880;37.542;2023-08-20T04:29:32;8.80;;;4.40;;
70951;SDS011;69214;55.880;37.542;2023-08-20T04:31:58;9.57;;;4.73;;
70951;SDS011;69214;55.880;37.542;2023-08-20T04:34:24;8.90;;;4.63;;
70951;SDS011;69214;55.880;37.542;2023-08-20T04:36:52;8.20;;;4.50;;
70951;SDS011;69214;55.880;37.542;2023-08-20T04:39:18;8.73;;;4.72;;
70951;SDS011;69214;55.880;37.542;2023-08-20T04:41:48;8.50;;;4.70;;
70951;SDS011;69214;55.880;37.542;2023-08-20T04:44:16;10.57;;;5.03;;
70951;SDS011;69214;55.880;37.542;2023-08-20T04:47:10;11.00;;;5.25;;
70951;SDS011;69214;55.880;37.542;2023-08-20T04:49:37;8.60;;;4.90;;
70951;SDS011;69214;55.880;37.542;2023-08-20T04:52:03;8.27;;;4.67;;
70951;SDS011;69214;55.880;37.542;2023-08-20T04:54:29;10.20;;;5.30;;
70951;SDS011;69214;55.880;37.542;2023-08-20T04:56:55;12.48;;;5.30;;
70951;SDS011;69214;55.880;37.542;2023-08-20T04:59:22;10.07;;;5.10;;
70951;SDS011;69214;55.880;37.542;2023-08-20T05:02:11;7.53;;;4.40;;
70951;SDS011;69214;55.880;37.542;2023-08-20T05:04:46;9.27;;;5.03;;
70951;SDS011;69214;55.880;37.542;2023-08-20T05:07:12;10.75;;;5.22;;
70951;SDS011;69214;55.880;37.542;2023-08-20T05:09:38;10.27;;;4.80;;
70951;SDS011;69214;55.880;37.542;2023-08-20T05:12:06;10.60;;;4.90;;
70951;SDS011;69214;55.880;37.542;2023-08-20T05:14:33;9.13;;;4.63;;
70951;SDS011;69214;55.880;37.542;2023-08-20T05:16:59;9.85;;;4.78;;
70951;SDS011;69214;55.880;37.542;2023-08-20T05:19:25;8.27;;;4.32;;
70951;SDS011;69214;55.880;37.542;2023-08-20T05:21:52;8.10;;;4.40;;
70951;SDS011;69214;55.880;37.542;2023-08-20T05:24:24;9.55;;;4.05;;
70951;SDS011;69214;55.880;37.542;2023-08-20T05:27:13;8.38;;;4.13;;
70951;SDS011;69214;55.880;37.542;2023-08-20T05:29:41;6.80;;;4.10;;
70951;SDS011;69214;55.880;37.542;2023-08-20T05:32:09;8.88;;;3.80;;
70951;SDS011;69214;55.880;37.542;2023-08-20T05:34:35;7.57;;;3.57;;
70951;SDS011;69214;55.880;37.542;2023-08-20T05:37:01;6.32;;;3.40;;
70951;SDS011;69214;55.880;37.542;2023-08-20T05:39:29;7.28;;;3.65;;
70951;SDS011;69214;55.880;37.542;2023-08-20T05:41:56;7.78;;;3.67;;
70951;SDS011;69214;55.880;37.542;2023-08-20T05:44:23;6.85;;;3.70;;
70951;SDS011;69214;55.880;37.542;2023-08-20T05:46:49;6.90;;;3.77;;
70951;SDS011;69214;55.880;37.542;2023-08-20T05:49:16;6.13;;;2.97;;
70951;SDS011;69214;55.880;37.542;2023-08-20T05:51:42;5.70;;;3.40;;
70951;SDS011;69214;55.880;37.542;2023-08-20T05:54:09;6.45;;;3.78;;
70951;SDS011;69214;55.880;37.542;2023-08-20T05:56:37;8.27;;;3.30;;
70951;SDS011;69214;55.880;37.542;2023-08-20T05:59:03;6.03;;;3.33;;
70951;SDS011;69214;55.880;37.542;2023-08-20T06:01:29;9.95;;;3.53;;
70951;SDS011;69214;55.880;37.542;2023-08-20T06:03:55;5.28;;;2.60;;
70951;SDS011;69214;55.880;37.542;2023-08-20T06:06:21;4.43;;;2.60;;
70951;SDS011;69214;55.880;37.542;2023-08-20T06:08:47;5.45;;;2.80;;
70951;SDS011;69214;55.880;37.542;2023-08-20T06:11:13;4.63;;;2.30;;
70951;SDS011;69214;55.880;37.542;2023-08-20T06:13:39;4.07;;;2.42;;
70951;SDS011;69214;55.880;37.542;2023-08-20T06:16:06;4.77;;;2.47;;
70951;SDS011;69214;55.880;37.542;2023-08-20T06:18:33;6.25;;;2.83;;
70951;SDS011;69214;55.880;37.542;2023-08-20T06:20:59;5.05;;;2.75;;
70951;SDS011;69214;55.880;37.542;2023-08-20T06:23:24;4.63;;;2.83;;
70951;SDS011;69214;55.880;37.542;2023-08-20T06:25:50;4.40;;;2.28;;
70951;SDS011;69214;55.880;37.542;2023-08-20T06:28:17;4.80;;;3.00;;
70951;SDS011;69214;55.880;37.542;2023-08-20T06:30:44;5.80;;;3.10;;
70951;SDS011;69214;55.880;37.542;2023-08-20T06:33:10;6.33;;;3.40;;
70951;SDS011;69214;55.880;37.542;2023-08-20T06:35:37;4.70;;;3.05;;
70951;SDS011;69214;55.880;37.542;2023-08-20T06:38:03;5.72;;;3.08;;
70951;SDS011;69214;55.880;37.542;2023-08-20T06:40:29;6.15;;;2.80;;
70951;SDS011;69214;55.880;37.542;2023-08-20T06:42:57;4.40;;;2.80;;
70951;SDS011;69214;55.880;37.542;2023-08-20T06:45:22;5.33;;;3.17;;
70951;SDS011;69214;55.880;37.542;2023-08-20T06:47:48;6.38;;;3.03;;
70951;SDS011;69214;55.880;37.542;2023-08-20T06:50:14;4.93;;;2.60;;
70951;SDS011;69214;55.880;37.542;2023-08-20T06:52:40;4.30;;;2.50;;
70951;SDS011;69214;55.880;37.542;2023-08-20T06:55:06;5.55;;;3.03;;
70951;SDS011;69214;55.880;37.542;2023-08-20T06:57:32;5.22;;;3.08;;
70951;SDS011;69214;55.880;37.542;2023-08-20T06:59:57;4.27;;;3.07;;
70951;SDS011;69214;55.880;37.542;2023-08-20T07:02:23;5.53;;;3.10;;
70951;SDS011;69214;55.880;37.542;2023-08-20T07:04:49;5.07;;;3.20;;
70951;SDS011;69214;55.880;37.542;2023-08-20T07:07:15;4.25;;;3.00;;
70951;SDS011;69214;55.880;37.542;2023-08-20T07:09:41;4.90;;;3.22;;
70951;SDS011;69214;55.880;37.542;2023-08-20T07:12:07;5.90;;;3.40;;
70951;SDS011;69214;55.880;37.542;2023-08-20T07:14:33;6.40;;;3.50;;
70951;SDS011;69214;55.880;37.542;2023-08-20T07:16:59;5.53;;;3.72;;
70951;SDS011;69214;55.880;37.542;2023-08-20T07:19:25;5.13;;;3.95;;
70951;SDS011;69214;55.880;37.542;2023-08-20T07:21:51;4.60;;;3.63;;
70951;SDS011;69214;55.880;37.542;2023-08-20T07:24:17;5.75;;;3.83;;
70951;SDS011;69214;55.880;37.542;2023-08-20T07:26:43;5.65;;;4.05;;
70951;SDS011;69214;55.880;37.542;2023-08-20T07:29:09;5.93;;;4.17;;
70951;SDS011;69214;55.880;37.542;2023-08-20T07:31:35;6.23;;;4.23;;
70951;SDS011;69214;55.880;37.542;2023-08-20T07:34:01;4.78;;;3.83;;
70951;SDS011;69214;55.880;37.542;2023-08-20T07:36:28;5.15;;;3.80;;
70951;SDS011;69214;55.880;37.542;2023-08-20T07:38:54;4.80;;;3.83;;
70951;SDS011;69214;55.880;37.542;2023-08-20T07:41:20;4.90;;;3.63;;
70951;SDS011;69214;55.880;37.542;2023-08-20T07:43:47;6.28;;;4.15;;
70951;SDS011;69214;55.880;37.542;2023-08-20T07:46:14;5.00;;;4.03;;
70951;SDS011;69214;55.880;37.542;2023-08-20T07:48:41;5.45;;;3.53;;
70951;SDS011;69214;55.880;37.542;2023-08-20T07:51:08;5.90;;;4.25;;
70951;SDS011;69214;55.880;37.542;2023-08-20T07:53:34;4.40;;;3.80;;
70951;SDS011;69214;55.880;37.542;2023-08-20T07:56:01;6.38;;;4.20;;
70951;SDS011;69214;55.880;37.542;2023-08-20T07:58:28;5.22;;;4.03;;
70951;SDS011;69214;55.880;37.542;2023-08-20T08:00:54;5.70;;;4.78;;
70951;SDS011;69214;55.880;37.542;2023-08-20T08:03:21;5.67;;;4.50;;
70951;SDS011;69214;55.880;37.542;2023-08-20T08:05:47;5.90;;;4.85;;
70951;SDS011;69214;55.880;37.542;2023-08-20T08:08:14;5.50;;;4.60;;
70951;SDS011;69214;55.880;37.542;2023-08-20T08:10:41;6.07;;;4.57;;
70951;SDS011;69214;55.880;37.542;2023-08-20T08:13:10;4.70;;;4.17;;
70951;SDS011;69214;55.880;37.542;2023-08-20T08:15:38;5.22;;;4.72;;
70951;SDS011;69214;55.880;37.542;2023-08-20T08:18:04;6.97;;;4.85;;
70951;SDS011;69214;55.880;37.542;2023-08-20T08:20:30;5.95;;;3.88;;
70951;SDS011;69214;55.880;37.542;2023-08-20T08:22:56;5.65;;;4.07;;
70951;SDS011;69214;55.880;37.542;2023-08-20T08:25:22;5.27;;;3.37;;
70951;SDS011;69214;55.880;37.542;2023-08-20T08:27:47;4.00;;;2.95;;
70951;SDS011;69214;55.880;37.542;2023-08-20T08:30:14;4.10;;;2.97;;
70951;SDS011;69214;55.880;37.542;2023-08-20T08:32:41;5.65;;;2.78;;
70951;SDS011;69214;55.880;37.542;2023-08-20T08:35:08;5.27;;;2.60;;
70951;SDS011;69214;55.880;37.542;2023-08-20T08:37:34;4.85;;;2.47;;
70951;SDS011;69214;55.880;37.542;2023-08-20T08:40:00;4.70;;;2.42;;
70951;SDS011;69214;55.880;37.542;2023-08-20T08:42:29;5.32;;;2.40;;
70951;SDS011;69214;55.880;37.542;2023-08-20T08:44:55;3.90;;;2.13;;
70951;SDS011;69214;55.880;37.542;2023-08-20T08:47:22;3.92;;;2.28;;
70951;SDS011;69214;55.880;37.542;2023-08-20T08:49:48;4.07;;;2.28;;
70951;SDS011;69214;55.880;37.542;2023-08-20T08:52:15;4.75;;;2.38;;
70951;SDS011;69214;55.880;37.542;2023-08-20T08:54:41;4.30;;;2.57;;
70951;SDS011;69214;55.880;37.542;2023-08-20T08:57:07;3.42;;;1.95;;
70951;SDS011;69214;55.880;37.542;2023-08-20T08:59:33;4.40;;;2.00;;
70951;SDS011;69214;55.880;37.542;2023-08-20T09:01:59;4.00;;;2.17;;
70951;SDS011;69214;55.880;37.542;2023-08-20T09:04:25;4.30;;;1.80;;
70951;SDS011;69214;55.880;37.542;2023-08-20T09:06:51;3.83;;;2.10;;
70951;SDS011;69214;55.880;37.542;2023-08-20T09:09:18;5.07;;;2.10;;
70951;SDS011;69214;55.880;37.542;2023-08-20T09:11:46;5.60;;;2.08;;
70951;SDS011;69214;55.880;37.542;2023-08-20T09:16:57;6.37;;;1.97;;
70951;SDS011;69214;55.880;37.542;2023-08-20T09:19:24;4.35;;;2.17;;
70951;SDS011;69214;55.880;37.542;2023-08-20T09:21:54;4.35;;;1.65;;
70951;SDS011;69214;55.880;37.542;2023-08-20T09:24:40;3.38;;;1.70;;
70951;SDS011;69214;55.880;37.542;2023-08-20T09:27:08;3.97;;;2.05;;
70951;SDS011;69214;55.880;37.542;2023-08-20T09:29:44;4.10;;;1.90;;
70951;SDS011;69214;55.880;37.542;2023-08-20T09:32:18;5.30;;;1.67;;
70951;SDS011;69214;55.880;37.542;2023-08-20T09:34:48;5.00;;;2.03;;
70951;SDS011;69214;55.880;37.542;2023-08-20T09:37:16;5.30;;;1.70;;
70951;SDS011;69214;55.880;37.542;2023-08-20T09:39:43;4.47;;;2.00;;
70951;SDS011;69214;55.880;37.542;2023-08-20T09:42:10;3.53;;;1.90;;
70951;SDS011;69214;55.880;37.542;2023-08-20T09:44:41;3.45;;;1.80;;
70951;SDS011;69214;55.880;37.542;2023-08-20T09:47:09;4.15;;;1.63;;
70951;SDS011;69214;55.880;37.542;2023-08-20T09:49:36;7.18;;;1.75;;
70951;SDS011;69214;55.880;37.542;2023-08-20T09:52:06;3.75;;;1.63;;
70951;SDS011;69214;55.880;37.542;2023-08-20T09:57:20;4.75;;;1.48;;
70951;SDS011;69214;55.880;37.542;2023-08-20T09:59:50;6.25;;;2.30;;
70951;SDS011;69214;55.880;37.542;2023-08-20T10:02:16;4.72;;;1.75;;
70951;SDS011;69214;55.880;37.542;2023-08-20T10:04:42;4.77;;;2.00;;
70951;SDS011;69214;55.880;37.542;2023-08-20T10:07:10;4.13;;;1.60;;
70951;SDS011;69214;55.880;37.542;2023-08-20T10:09:38;3.83;;;1.98;;
70951;SDS011;69214;55.880;37.542;2023-08-20T10:12:05;3.70;;;1.75;;
70951;SDS011;69214;55.880;37.542;2023-08-20T10:14:31;4.53;;;1.55;;
70951;SDS011;69214;55.880;37.542;2023-08-20T10:16:57;4.33;;;1.50;;
70951;SDS011;69214;55.880;37.542;2023-08-20T10:19:24;5.57;;;1.80;;
70951;SDS011;69214;55.880;37.542;2023-08-20T10:21:53;3.85;;;1.80;;
70951;SDS011;69214;55.880;37.542;2023-08-20T10:24:19;6.53;;;1.65;;
70951;SDS011;69214;55.880;37.542;2023-08-20T10:26:45;5.85;;;1.58;;
70951;SDS011;69214;55.880;37.542;2023-08-20T10:32:03;3.28;;;1.58;;
70951;SDS011;69214;55.880;37.542;2023-08-20T10:34:42;5.85;;;1.92;;
70951;SDS011;69214;55.880;37.542;2023-08-20T10:37:15;3.47;;;1.38;;
70951;SDS011;69214;55.880;37.542;2023-08-20T10:39:41;3.60;;;1.50;;
70951;SDS011;69214;55.880;37.542;2023-08-20T10:42:29;4.35;;;1.77;;
70951;SDS011;69214;55.880;37.542;2023-08-20T10:50:10;3.38;;;1.42;;
70951;SDS011;69214;55.880;37.542;2023-08-20T10:52:41;3.40;;;1.57;;
70951;SDS011;69214;55.880;37.542;2023-08-20T10:55:12;3.50;;;1.55;;
70951;SDS011;69214;55.880;37.542;2023-08-20T10:57:39;3.90;;;1.52;;
70951;SDS011;69214;55.880;37.542;2023-08-20T11:00:06;4.55;;;2.10;;
70951;SDS011;69214;55.880;37.542;2023-08-20T11:02:38;3.42;;;1.63;;
70951;SDS011;69214;55.880;37.542;2023-08-20T11:05:09;5.50;;;1.60;;
70951;SDS011;69214;55.880;37.542;2023-08-20T11:07:44;3.30;;;1.40;;
70951;SDS011;69214;55.880;37.542;2023-08-20T11:10:13;3.85;;;1.98;;
70951;SDS011;69214;55.880;37.542;2023-08-20T11:12:42;3.13;;;1.42;;
70951;SDS011;69214;55.880;37.542;2023-08-20T11:15:11;4.32;;;1.77;;
70951;SDS011;69214;55.880;37.542;2023-08-20T11:17:45;3.10;;;1.50;;
70951;SDS011;69214;55.880;37.542;2023-08-20T11:20:13;3.03;;;1.38;;
70951;SDS011;69214;55.880;37.542;2023-08-20T11:22:40;3.65;;;1.73;;
70951;SDS011;69214;55.880;37.542;2023-08-20T11:25:10;2.55;;;1.27;;
70951;SDS011;69214;55.880;37.542;2023-08-20T11:27:43;3.85;;;1.73;;
70951;SDS011;69214;55.880;37.542;2023-08-20T11:30:09;4.27;;;1.60;;
70951;SDS011;69214;55.880;37.542;2023-08-20T11:32:37;3.92;;;1.70;;
70951;SDS011;69214;55.880;37.542;2023-08-20T11:35:04;3.20;;;1.70;;
70951;SDS011;69214;55.880;37.542;2023-08-20T11:37:31;4.07;;;1.73;;
70951;SDS011;69214;55.880;37.542;2023-08-20T11:39:56;3.58;;;1.55;;
70951;SDS011;69214;55.880;37.542;2023-08-20T11:42:22;5.70;;;1.80;;
70951;SDS011;69214;55.880;37.542;2023-08-20T11:44:49;4.60;;;2.10;;
70951;SDS011;69214;55.880;37.542;2023-08-20T11:47:18;3.85;;;1.70;;
70951;SDS011;69214;55.880;37.542;2023-08-20T11:49:44;4.65;;;1.60;;
70951;SDS011;69214;55.880;37.542;2023-08-20T11:52:10;5.03;;;1.80;;
70951;SDS011;69214;55.880;37.542;2023-08-20T11:54:41;4.95;;;1.98;;
70951;SDS011;69214;55.880;37.542;2023-08-20T11:57:07;4.85;;;1.80;;
70951;SDS011;69214;55.880;37.542;2023-08-20T11:59:33;4.90;;;2.40;;
70951;SDS011;69214;55.880;37.542;2023-08-20T12:02:00;5.95;;;2.28;;
70951;SDS011;69214;55.880;37.542;2023-08-20T12:04:30;4.30;;;2.10;;
70951;SDS011;69214;55.880;37.542;2023-08-20T12:07:12;5.93;;;2.42;;
70951;SDS011;69214;55.880;37.542;2023-08-20T12:09:39;4.63;;;2.13;;
70951;SDS011;69214;55.880;37.542;2023-08-20T12:12:05;5.00;;;2.07;;
70951;SDS011;69214;55.880;37.542;2023-08-20T12:14:32;4.95;;;1.55;;
70951;SDS011;69214;55.880;37.542;2023-08-20T12:16:59;3.80;;;1.45;;
70951;SDS011;69214;55.880;37.542;2023-08-20T12:19:25;2.80;;;0.95;;
70951;SDS011;69214;55.880;37.542;2023-08-20T12:21:51;3.33;;;1.10;;
70951;SDS011;69214;55.880;37.542;2023-08-20T12:24:17;2.90;;;1.05;;
70951;SDS011;69214;55.880;37.542;2023-08-20T12:26:47;4.40;;;1.33;;
70951;SDS011;69214;55.880;37.542;2023-08-20T12:29:13;4.50;;;1.88;;
70951;SDS011;69214;55.880;37.542;2023-08-20T12:31:40;5.47;;;1.70;;
70951;SDS011;69214;55.880;37.542;2023-08-20T12:34:08;4.70;;;1.70;;
70951;SDS011;69214;55.880;37.542;2023-08-20T12:36:49;4.03;;;1.73;;
70951;SDS011;69214;55.880;37.542;2023-08-20T12:39:15;7.43;;;1.52;;
70951;SDS011;69214;55.880;37.542;2023-08-20T12:41:41;3.80;;;1.70;;
70951;SDS011;69214;55.880;37.542;2023-08-20T12:44:07;6.07;;;1.90;;
70951;SDS011;69214;55.880;37.542;2023-08-20T12:46:33;4.50;;;1.90;;
70951;SDS011;69214;55.880;37.542;2023-08-20T12:48:59;5.00;;;1.90;;
70951;SDS011;69214;55.880;37.542;2023-08-20T12:51:25;4.53;;;1.70;;
70951;SDS011;69214;55.880;37.542;2023-08-20T12:53:51;4.82;;;1.70;;
70951;SDS011;69214;55.880;37.542;2023-08-20T12:56:17;6.28;;;1.90;;
70951;SDS011;69214;55.880;37.542;2023-08-20T12:58:43;4.63;;;1.80;;
70951;SDS011;69214;55.880;37.542;2023-08-20T13:01:10;4.18;;;1.77;;
70951;SDS011;69214;55.880;37.542;2023-08-20T13:03:38;4.30;;;1.70;;
70951;SDS011;69214;55.880;37.542;2023-08-20T13:06:04;5.22;;;1.85;;
70951;SDS011;69214;55.880;37.542;2023-08-20T13:08:30;5.43;;;1.95;;
70951;SDS011;69214;55.880;37.542;2023-08-20T13:10:57;4.90;;;1.70;;
70951;SDS011;69214;55.880;37.542;2023-08-20T13:13:23;5.32;;;1.95;;
70951;SDS011;69214;55.880;37.542;2023-08-20T13:15:50;4.65;;;1.73;;
70951;SDS011;69214;55.880;37.542;2023-08-20T13:18:17;4.93;;;2.22;;
70951;SDS011;69214;55.880;37.542;2023-08-20T13:20:44;5.47;;;2.05;;
70951;SDS011;69214;55.880;37.542;2023-08-20T13:23:10;7.70;;;2.13;;
70951;SDS011;69214;55.880;37.542;2023-08-20T13:25:36;5.30;;;2.40;;
70951;SDS011;69214;55.880;37.542;2023-08-20T13:28:02;5.07;;;2.10;;
70951;SDS011;69214;55.880;37.542;2023-08-20T13:30:29;5.70;;;1.98;;
70951;SDS011;69214;55.880;37.542;2023-08-20T13:32:55;5.60;;;2.30;;
70951;SDS011;69214;55.880;37.542;2023-08-20T13:35:21;5.18;;;2.15;;
70951;SDS011;69214;55.880;37.542;2023-08-20T13:37:48;5.85;;;2.20;;
70951;SDS011;69214;55.880;37.542;2023-08-20T13:40:14;5.28;;;2.15;;
70951;SDS011;69214;55.880;37.542;2023-08-20T13:42:39;6.87;;;2.67;;
70951;SDS011;69214;55.880;37.542;2023-08-20T13:45:05;6.22;;;2.33;;
70951;SDS011;69214;55.880;37.542;2023-08-20T13:47:32;6.15;;;2.80;;
70951;SDS011;69214;55.880;37.542;2023-08-20T13:49:58;5.70;;;2.73;;
70951;SDS011;69214;55.880;37.542;2023-08-20T13:52:23;6.10;;;2.97;;
70951;SDS011;69214;55.880;37.542;2023-08-20T13:54:49;5.88;;;2.88;;
70951;SDS011;69214;55.880;37.542;2023-08-20T13:57:15;6.65;;;2.67;;
70951;SDS011;69214;55.880;37.542;2023-08-20T13:59:41;6.03;;;2.93;;
70951;SDS011;69214;55.880;37.542;2023-08-20T14:02:07;6.57;;;2.65;;
70951;SDS011;69214;55.880;37.542;2023-08-20T14:04:33;6.63;;;3.03;;
70951;SDS011;69214;55.880;37.542;2023-08-20T14:06:58;5.33;;;2.80;;
70951;SDS011;69214;55.880;37.542;2023-08-20T14:09:24;7.70;;;2.70;;
70951;SDS011;69214;55.880;37.542;2023-08-20T14:11:50;7.18;;;2.95;;
70951;SDS011;69214;55.880;37.542;2023-08-20T14:14:16;7.50;;;2.63;;
70951;SDS011;69214;55.880;37.542;2023-08-20T14:16:43;6.78;;;2.85;;
70951;SDS011;69214;55.880;37.542;2023-08-20T14:19:09;7.68;;;2.72;;
70951;SDS011;69214;55.880;37.542;2023-08-20T14:21:36;5.90;;;3.20;;
70951;SDS011;69214;55.880;37.542;2023-08-20T14:24:04;5.70;;;2.83;;
70951;SDS011;69214;55.880;37.542;2023-08-20T14:26:31;6.30;;;3.17;;
70951;SDS011;69214;55.880;37.542;2023-08-20T14:28:57;6.30;;;3.17;;
70951;SDS011;69214;55.880;37.542;2023-08-20T14:31:24;6.70;;;3.22;;
70951;SDS011;69214;55.880;37.542;2023-08-20T14:33:50;7.18;;;2.92;;
70951;SDS011;69214;55.880;37.542;2023-08-20T14:36:16;5.77;;;2.87;;
70951;SDS011;69214;55.880;37.542;2023-08-20T14:38:42;6.30;;;2.70;;
70951;SDS011;69214;55.880;37.542;2023-08-20T14:41:07;6.43;;;3.45;;
70951;SDS011;69214;55.880;37.542;2023-08-20T14:43:34;7.85;;;2.95;;
70951;SDS011;69214;55.880;37.542;2023-08-20T14:46:00;6.80;;;3.00;;
70951;SDS011;69214;55.880;37.542;2023-08-20T14:48:26;9.00;;;3.40;;
70951;SDS011;69214;55.880;37.542;2023-08-20T14:50:53;8.02;;;2.53;;
70951;SDS011;69214;55.880;37.542;2023-08-20T14:53:19;8.32;;;3.53;;